Time;durP1;ratioP1;P1;durP2;ratioP2;P2;SDS_P1;SDS_P2;PMS_P1;PMS_P2;Temp;Humidity;BMP_temperature;BMP_pressure;BME280_temperature;BME280_humidity;BME280_pressure;Samples;Min_cycle;Max_cycle;Signal;HPM_P1;HPM_P2
2023/02/01 00:01:23;;;;;;;;;;;5.00;99.90;;;;;;8391296;28;19933;-75
2023/02/01 00:05:24;;;;;;;;;;;5.00;99.90;;;;;;8395504;28;19959;-75
2023/02/01 00:09:26;;;;;;;;;;;5.00;99.90;;;;;;8387343;28;19979;-75
2023/02/01 00:13:29;;;;;;;;;;;5.00;99.90;;;;;;8391191;28;19929;-75
2023/02/01 00:17:31;;;;;;;;;;;5.00;99.90;;;;;;8389844;28;19942;-75
2023/02/01 00:21:32;;;;;;;;;;;5.10;99.90;;;;;;8374189;28;20388;-75
2023/02/01 00:25:34;;;;;;;;;;;5.20;99.90;;;;;;8390055;28;20429;-75
2023/02/01 00:29:36;;;;;;;;;;;5.20;99.90;;;;;;8387014;28;19979;-76
2023/02/01 00:33:37;;;;;;;;;;;5.30;99.90;;;;;;8387644;28;20362;-75
2023/02/01 00:37:39;;;;;;;;;;;5.30;99.90;;;;;;8378073;28;19924;-75
2023/02/01 00:41:40;;;;;;;;;;;5.40;99.90;;;;;;8388229;28;19928;-75
2023/02/01 00:45:42;;;;;;;;;;;5.40;99.90;;;;;;8388726;28;19975;-75
2023/02/01 00:49:44;;;;;;;;;;;5.40;99.90;;;;;;8380767;28;20359;-75
2023/02/01 00:53:46;;;;;;;;;;;5.50;99.90;;;;;;8402292;28;20277;-76
2023/02/01 00:57:48;;;;;;;;;;;5.50;99.90;;;;;;8368364;28;19947;-75
2023/02/01 01:01:49;;;;;;;;;;;5.50;99.90;;;;;;8368725;28;20295;-76
2023/02/01 01:05:51;;;;;;;;;;;5.60;99.90;;;;;;8395933;28;19928;-75
2023/02/01 01:09:52;;;;;;;;;;;5.60;99.90;;;;;;8372037;28;20316;-75
2023/02/01 01:13:55;;;;;;;;;;;5.60;99.90;;;;;;8381712;28;20362;-75
2023/02/01 01:17:56;;;;;;;;;;;5.60;99.90;;;;;;8372483;28;19924;-75
2023/02/01 01:21:58;;;;;;;;;;;5.70;99.90;;;;;;8390346;28;19936;-76
2023/02/01 01:26:00;;;;;;;;;;;5.70;99.90;;;;;;8383525;28;19925;-75
2023/02/01 01:30:01;;;;;;;;;;;5.70;99.90;;;;;;8386525;28;19968;-75
2023/02/01 01:34:03;;;;;;;;;;;5.70;99.90;;;;;;8389988;28;19928;-75
2023/02/01 01:38:04;;;;;;;;;;;5.70;99.90;;;;;;8390646;28;19928;-75
2023/02/01 01:42:08;;;;;;;;;;;5.70;99.90;;;;;;8386822;28;19932;-75
2023/02/01 01:46:10;;;;;;;;;;;5.70;99.90;;;;;;8369036;28;20292;-75
2023/02/01 01:50:15;;;;;;;;;;;5.70;99.90;;;;;;8351211;28;20399;-75
2023/02/01 01:54:18;;;;;;;;;;;5.70;99.90;;;;;;8369570;28;19924;-75
2023/02/01 01:58:22;;;;;;;;;;;5.70;99.90;;;;;;8356730;28;19932;-75
2023/02/01 02:02:24;;;;;;;;;;;5.70;99.90;;;;;;8343033;28;19968;-75
2023/02/01 02:06:30;;;;;;;;;;;5.70;99.90;;;;;;8355690;28;19925;-75
2023/02/01 02:14:52;;;;;;;;;;;5.80;99.90;;;;;;8359502;28;19924;-75
2023/02/01 02:18:53;;;;;;;;;;;5.80;99.90;;;;;;8349927;28;19950;-75
2023/02/01 02:23:07;;;;;;;;;;;5.90;99.90;;;;;;8348061;28;19925;-75
2023/02/01 02:27:26;;;;;;;;;;;6.00;99.90;;;;;;8355549;28;19932;-75
2023/02/01 02:31:47;;;;;;;;;;;6.10;99.90;;;;;;8352110;28;19925;-75
2023/02/01 02:35:59;;;;;;;;;;;6.20;99.90;;;;;;8353732;28;19928;-75
2023/02/01 02:40:06;;;;;;;;;;;6.30;99.90;;;;;;8354488;28;19924;-75
2023/02/01 02:48:41;;;;;;;;;;;6.40;99.90;;;;;;8361269;28;19933;-75
2023/02/01 03:05:52;;;;;;;;;;;6.60;99.90;;;;;;8389670;28;19925;-75
2023/02/01 03:09:54;;;;;;;;;;;6.70;99.90;;;;;;8381396;28;19983;-75
2023/02/01 03:13:57;;;;;;;;;;;6.70;99.90;;;;;;8358689;28;19956;-75
2023/02/01 03:18:01;;;;;;;;;;;6.70;99.90;;;;;;8380698;28;20316;-75
2023/02/01 03:22:04;;;;;;;;;;;6.70;99.90;;;;;;8371192;28;19976;-75
2023/02/01 03:26:09;;;;;;;;;;;6.70;99.90;;;;;;8374500;28;20291;-75
2023/02/01 03:30:20;;;;;;;;;;;6.80;99.90;;;;;;8371058;28;19932;-76
2023/02/01 03:34:22;;;;;;;;;;;6.70;99.90;;;;;;8395469;28;20265;-75
2023/02/01 03:38:24;;;;;;;;;;;6.70;99.90;;;;;;8394188;28;19928;-76
2023/02/01 03:42:37;;;;;;;;;;;6.60;99.90;;;;;;8373413;28;20403;-75
2023/02/01 03:46:59;;;;;;;;;;;6.60;99.90;;;;;;8367659;28;19924;-76
2023/02/01 03:51:03;;;;;;;;;;;6.60;99.90;;;;;;8389204;28;19924;-75
2023/02/01 03:55:05;;;;;;;;;;;6.60;99.90;;;;;;8391467;28;20322;-76
2023/02/01 03:59:06;;;;;;;;;;;6.50;99.90;;;;;;8373737;28;19968;-75
2023/02/01 04:03:08;;;;;;;;;;;6.50;99.90;;;;;;8391007;28;19981;-76
2023/02/01 04:07:10;;;;;;;;;;;6.50;99.90;;;;;;8376890;28;19947;-76
2023/02/01 04:11:11;;;;;;;;;;;6.60;99.90;;;;;;8375304;28;19982;-76
2023/02/01 04:15:13;;;;;;;;;;;6.60;99.90;;;;;;8370113;28;20633;-76
2023/02/01 04:19:15;;;;;;;;;;;6.70;99.90;;;;;;8381391;28;19929;-75
2023/02/01 04:23:16;;;;;;;;;;;6.70;99.90;;;;;;8396775;28;20031;-75
2023/02/01 04:27:18;;;;;;;;;;;6.80;99.90;;;;;;8389494;28;19924;-75
2023/02/01 04:31:27;;;;;;;;;;;6.80;99.90;;;;;;8389888;28;19968;-75
2023/02/01 04:35:29;;;;;;;;;;;6.80;99.90;;;;;;8391118;28;19964;-75
2023/02/01 04:39:30;;;;;;;;;;;6.80;99.90;;;;;;8386963;28;19931;-76
2023/02/01 04:43:32;;;;;;;;;;;6.80;99.90;;;;;;8366425;28;19925;-75
2023/02/01 04:47:33;;;;;;;;;;;6.80;99.90;;;;;;8364253;28;19931;-76
2023/02/01 04:51:35;;;;;;;;;;;6.90;99.90;;;;;;8362415;28;20354;-75
2023/02/01 04:55:37;;;;;;;;;;;6.90;99.90;;;;;;8378454;28;19932;-75
2023/02/01 04:59:39;;;;;;;;;;;6.90;99.90;;;;;;8375354;28;19939;-76
2023/02/01 05:03:41;;;;;;;;;;;6.90;99.90;;;;;;8384817;28;19928;-75
2023/02/01 05:07:42;;;;;;;;;;;6.90;99.90;;;;;;8382997;28;20002;-75
2023/02/01 05:16:04;;;;;;;;;;;6.90;99.90;;;;;;8389620;28;19960;-76
2023/02/01 05:20:07;;;;;;;;;;;6.90;99.90;;;;;;8371794;28;19994;-75
2023/02/01 05:24:19;;;;;;;;;;;6.80;99.90;;;;;;8384734;28;20460;-75
2023/02/01 05:28:21;;;;;;;;;;;6.80;99.90;;;;;;8380044;28;19924;-76
2023/02/01 05:32:23;;;;;;;;;;;6.70;99.90;;;;;;8361895;28;19931;-76
2023/02/01 05:36:26;;;;;;;;;;;6.70;99.90;;;;;;8382409;28;20127;-76
2023/02/01 05:40:28;;;;;;;;;;;6.70;99.90;;;;;;8378746;28;19928;-76
2023/02/01 05:44:29;;;;;;;;;;;6.70;99.90;;;;;;8376834;28;21647;-76
2023/02/01 05:48:31;;;;;;;;;;;6.60;99.90;;;;;;8357774;28;20368;-76
2023/02/01 05:52:33;;;;;;;;;;;6.60;99.90;;;;;;8373357;28;19925;-76
2023/02/01 05:56:34;;;;;;;;;;;6.60;99.90;;;;;;8358538;28;19928;-76
2023/02/01 06:00:36;;;;;;;;;;;6.70;99.90;;;;;;8373560;28;19932;-76
2023/02/01 06:04:38;;;;;;;;;;;6.70;99.90;;;;;;8374068;28;19939;-76
2023/02/01 06:08:40;;;;;;;;;;;6.70;99.90;;;;;;8351857;28;19955;-76
2023/02/01 06:12:42;;;;;;;;;;;6.70;99.90;;;;;;8373197;28;19983;-76
2023/02/01 06:16:45;;;;;;;;;;;6.70;99.90;;;;;;8388460;28;19940;-75
2023/02/01 06:20:51;;;;;;;;;;;6.70;99.90;;;;;;8390297;28;20014;-76
2023/02/01 06:24:53;;;;;;;;;;;6.60;99.90;;;;;;8387571;28;19924;-75
2023/02/01 06:28:57;;;;;;;;;;;6.60;99.90;;;;;;8391369;28;19931;-76
2023/02/01 06:32:59;;;;;;;;;;;6.60;99.90;;;;;;8370545;28;19931;-76
2023/02/01 06:37:01;;;;;;;;;;;6.60;99.90;;;;;;8395046;28;19924;-75
2023/02/01 06:41:03;;;;;;;;;;;6.50;99.90;;;;;;8391748;28;20405;-76
2023/02/01 06:45:06;;;;;;;;;;;6.50;99.90;;;;;;8381143;28;20343;-75
2023/02/01 06:49:08;;;;;;;;;;;6.50;99.90;;;;;;8395113;28;19932;-75
2023/02/01 06:53:10;;;;;;;;;;;6.50;99.90;;;;;;8389371;28;20436;-75
2023/02/01 06:57:11;;;;;;;;;;;6.50;99.90;;;;;;8380363;28;19925;-76
2023/02/01 07:06:18;;;;;;;;;;;6.50;99.90;;;;;;8389958;28;19923;-75
2023/02/01 07:10:19;;;;;;;;;;;6.50;99.90;;;;;;8395251;28;19951;-75
2023/02/01 07:14:21;;;;;;;;;;;6.50;99.90;;;;;;8377659;28;19931;-76
2023/02/01 07:18:23;;;;;;;;;;;6.60;99.90;;;;;;8376984;28;19940;-75
2023/02/01 07:22:25;;;;;;;;;;;6.60;99.90;;;;;;8376325;28;20002;-76
2023/02/01 07:26:27;;;;;;;;;;;6.70;99.90;;;;;;8375733;28;20399;-76
2023/02/01 07:30:28;;;;;;;;;;;6.70;99.90;;;;;;8379482;28;19928;-76
2023/02/01 07:34:30;;;;;;;;;;;6.70;99.90;;;;;;8389402;28;20367;-76
2023/02/01 07:38:32;;;;;;;;;;;6.70;99.90;;;;;;8377176;28;20380;-76
2023/02/01 07:42:34;;;;;;;;;;;6.70;99.90;;;;;;8375225;28;19924;-76
2023/02/01 07:46:36;;;;;;;;;;;6.70;99.90;;;;;;8371638;28;20387;-75
2023/02/01 07:50:37;;;;;;;;;;;6.80;99.90;;;;;;8393107;28;20011;-75
2023/02/01 07:54:39;;;;;;;;;;;6.80;99.90;;;;;;8373921;28;19931;-76
2023/02/01 07:58:41;;;;;;;;;;;6.80;99.90;;;;;;8376241;28;19970;-76
2023/02/01 08:02:42;;;;;;;;;;;6.80;99.90;;;;;;8388858;28;19924;-75
2023/02/01 08:06:44;;;;;;;;;;;6.80;99.90;;;;;;8393663;28;20061;-75
2023/02/01 08:10:45;;;;;;;;;;;6.80;99.90;;;;;;8376789;28;20012;-76
2023/02/01 08:14:47;;;;;;;;;;;6.80;99.90;;;;;;8371560;28;20740;-75
2023/02/01 08:18:49;;;;;;;;;;;6.80;99.90;;;;;;8391636;28;19979;-75
2023/02/01 08:22:50;;;;;;;;;;;6.80;99.90;;;;;;8390383;28;19994;-75
2023/02/01 08:26:54;;;;;;;;;;;6.80;99.90;;;;;;8393519;28;19924;-76
2023/02/01 08:30:56;;;;;;;;;;;6.80;99.90;;;;;;8393201;28;19936;-76
2023/02/01 08:34:58;;;;;;;;;;;6.80;99.90;;;;;;8366764;28;19924;-76
2023/02/01 08:39:00;;;;;;;;;;;6.80;99.90;;;;;;8388355;28;19973;-76
2023/02/01 08:53:15;;;;;;;;;;;7.00;99.90;;;;;;8372837;28;20280;-76
2023/02/01 08:57:17;;;;;;;;;;;7.10;99.90;;;;;;8391167;28;20300;-75
2023/02/01 09:01:19;;;;;;;;;;;7.20;99.90;;;;;;8364593;28;20322;-76
2023/02/01 09:05:22;;;;;;;;;;;7.30;99.90;;;;;;8389848;28;20001;-76
2023/02/01 09:09:23;;;;;;;;;;;7.50;99.90;;;;;;8386109;28;19934;-75
2023/02/01 09:13:25;;;;;;;;;;;7.60;99.90;;;;;;8370592;28;20395;-76
2023/02/01 09:17:27;;;;;;;;;;;7.70;99.90;;;;;;8385250;28;19940;-76
2023/02/01 09:21:34;;;;;;;;;;;7.80;99.90;;;;;;8391391;28;19925;-75
2023/02/01 09:25:37;;;;;;;;;;;7.90;99.90;;;;;;8361547;28;19928;-75
2023/02/01 09:29:38;;;;;;;;;;;8.00;99.90;;;;;;8379337;28;19924;-76
2023/02/01 09:33:40;;;;;;;;;;;8.20;99.90;;;;;;8386818;28;19950;-75
2023/02/01 09:37:42;;;;;;;;;;;8.30;99.90;;;;;;8401238;28;20014;-75
2023/02/01 09:47:15;;;;;;;;;;;8.20;99.90;;;;;;8382270;28;19966;-76
2023/02/01 09:51:21;;;;;;;;;;;8.00;99.90;;;;;;8366786;28;19960;-76
2023/02/01 09:55:41;;;;;;;;;;;7.90;99.90;;;;;;8387766;28;20023;-76
2023/02/01 09:59:46;;;;;;;;;;;7.90;99.90;;;;;;8394565;28;20026;-75
2023/02/01 10:03:48;;;;;;;;;;;7.90;99.90;;;;;;8384254;28;20038;-76
2023/02/01 10:07:57;;;;;;;;;;;7.90;99.90;;;;;;8377723;28;19946;-76
2023/02/01 10:12:18;;;;;;;;;;;7.80;99.90;;;;;;8379848;28;20280;-75
2023/02/01 10:16:31;;;;;;;;;;;7.80;99.90;;;;;;8360932;28;19931;-76
2023/02/01 10:20:52;;;;;;;;;;;7.80;99.90;;;;;;8390122;28;19932;-76
2023/02/01 10:24:58;;;;;;;;;;;7.80;99.90;;;;;;8378243;28;19975;-75
2023/02/01 10:29:02;;;;;;;;;;;7.60;99.90;;;;;;8399395;28;20296;-75
2023/02/01 10:33:15;;;;;;;;;;;7.50;99.90;;;;;;8377600;28;20031;-75
2023/02/01 10:37:30;;;;;;;;;;;7.20;99.90;;;;;;8396123;28;19939;-75
2023/02/01 10:41:37;;;;;;;;;;;7.10;99.90;;;;;;8368190;28;19928;-75
2023/02/01 10:45:42;;;;;;;;;;;7.00;99.90;;;;;;8403427;28;20236;-75
2023/02/01 10:49:49;;;;;;;;;;;7.00;99.90;;;;;;8401891;28;19931;-75
2023/02/01 10:54:00;;;;;;;;;;;7.00;99.90;;;;;;8395724;28;19935;-75
2023/02/01 10:58:03;;;;;;;;;;;7.10;99.90;;;;;;8377964;28;19924;-75
2023/02/01 11:02:34;;;;;;;;;;;7.10;99.90;;;;;;8395994;28;20040;-76
2023/02/01 11:06:37;;;;;;;;;;;7.30;99.90;;;;;;8387852;28;19933;-75
2023/02/01 11:10:40;;;;;;;;;;;7.40;99.90;;;;;;8396568;28;20388;-75
2023/02/01 11:14:42;;;;;;;;;;;7.50;99.90;;;;;;8396246;28;20329;-75
2023/02/01 11:18:44;;;;;;;;;;;7.60;99.90;;;;;;8401983;28;20349;-75
2023/02/01 11:22:52;;;;;;;;;;;7.60;99.90;;;;;;8382203;28;19925;-76
2023/02/01 11:26:55;;;;;;;;;;;7.50;99.90;;;;;;8392982;28;19971;-75
2023/02/01 11:30:59;;;;;;;;;;;7.30;99.90;;;;;;8395816;28;19930;-76
2023/02/01 11:35:03;;;;;;;;;;;7.20;99.90;;;;;;8393760;28;19931;-75
2023/02/01 11:39:09;;;;;;;;;;;7.10;99.90;;;;;;8409476;28;19975;-75
2023/02/01 11:43:23;;;;;;;;;;;7.20;99.90;;;;;;8389404;28;19951;-75
2023/02/01 11:47:38;;;;;;;;;;;7.20;99.90;;;;;;8374333;28;20169;-75
2023/02/01 11:51:50;;;;;;;;;;;7.30;99.90;;;;;;8391087;28;19931;-75
2023/02/01 11:55:54;;;;;;;;;;;7.40;99.90;;;;;;8373852;28;20011;-76
2023/02/01 12:00:03;;;;;;;;;;;7.60;99.90;;;;;;8377151;28;19983;-76
2023/02/01 12:04:34;;;;;;;;;;;7.70;99.90;;;;;;8372740;28;19962;-75
2023/02/01 12:08:42;;;;;;;;;;;7.90;99.90;;;;;;8361407;28;20423;-75
2023/02/01 12:12:45;;;;;;;;;;;8.00;99.90;;;;;;8371542;28;19925;-75
2023/02/01 12:17:01;;;;;;;;;;;8.10;99.90;;;;;;8377161;28;19928;-76
2023/02/01 12:21:06;;;;;;;;;;;8.30;99.90;;;;;;8395783;28;20384;-75
2023/02/01 12:25:14;;;;;;;;;;;8.30;99.90;;;;;;8352956;28;19932;-76
2023/02/01 12:29:18;;;;;;;;;;;8.40;99.90;;;;;;8380496;28;19944;-76
2023/02/01 12:33:31;;;;;;;;;;;8.40;99.90;;;;;;8375748;28;19963;-76
2023/02/01 12:37:46;;;;;;;;;;;8.30;99.90;;;;;;8366716;28;19940;-76
2023/02/01 12:41:47;;;;;;;;;;;8.40;99.90;;;;;;8367587;28;19936;-75
2023/02/01 12:45:52;;;;;;;;;;;8.40;99.90;;;;;;8373441;28;19924;-75
2023/02/01 12:50:13;;;;;;;;;;;8.40;99.90;;;;;;8371263;28;20298;-76
2023/02/01 12:54:20;;;;;;;;;;;8.30;99.90;;;;;;8354857;28;19925;-75
2023/02/01 12:58:33;;;;;;;;;;;8.40;99.90;;;;;;8359077;28;20353;-76
2023/02/01 13:02:53;;;;;;;;;;;8.40;99.90;;;;;;8354553;28;19935;-76
2023/02/01 13:07:10;;;;;;;;;;;8.50;99.90;;;;;;8353808;28;19935;-75
2023/02/01 13:11:26;;;;;;;;;;;8.50;99.90;;;;;;8361336;28;20630;-76
2023/02/01 13:15:36;;;;;;;;;;;8.60;99.90;;;;;;8360357;28;19924;-75
2023/02/01 13:19:47;;;;;;;;;;;8.50;99.90;;;;;;8362000;28;19964;-76
2023/02/01 13:23:49;;;;;;;;;;;8.50;99.90;;;;;;8359028;28;19929;-75
2023/02/01 13:27:53;;;;;;;;;;;8.60;99.90;;;;;;8384799;28;19925;-76
2023/02/01 13:32:09;;;;;;;;;;;8.50;99.90;;;;;;8357612;28;20350;-76
2023/02/01 13:36:16;;;;;;;;;;;8.50;99.90;;;;;;8363806;28;19961;-76
2023/02/01 13:40:35;;;;;;;;;;;8.50;99.90;;;;;;8364618;28;19979;-76
2023/02/01 13:44:36;;;;;;;;;;;8.50;99.90;;;;;;8350391;28;20430;-76
2023/02/01 13:48:46;;;;;;;;;;;8.50;99.90;;;;;;8361458;28;20444;-75
2023/02/01 13:53:11;;;;;;;;;;;8.50;99.90;;;;;;8378807;28;19932;-76
2023/02/01 13:57:34;;;;;;;;;;;8.50;99.90;;;;;;8383805;28;19947;-75
2023/02/01 14:01:36;;;;;;;;;;;8.50;99.90;;;;;;8391158;28;19925;-76
2023/02/01 14:05:38;;;;;;;;;;;8.50;99.90;;;;;;8391261;28;19924;-75
2023/02/01 14:09:40;;;;;;;;;;;8.50;99.90;;;;;;8393692;28;19924;-75
2023/02/01 14:13:41;;;;;;;;;;;8.50;99.90;;;;;;8387406;28;19935;-76
2023/02/01 14:17:43;;;;;;;;;;;8.50;99.90;;;;;;8369635;28;19925;-75
2023/02/01 14:21:49;;;;;;;;;;;8.50;99.90;;;;;;8393754;28;19928;-76
2023/02/01 14:26:02;;;;;;;;;;;8.50;99.90;;;;;;8387823;28;19924;-76
2023/02/01 14:30:07;;;;;;;;;;;8.50;99.90;;;;;;8353464;28;20498;-75
2023/02/01 14:34:11;;;;;;;;;;;8.50;99.90;;;;;;8354023;28;19935;-75
2023/02/01 14:38:13;;;;;;;;;;;8.60;99.90;;;;;;8363226;28;19932;-76
2023/02/01 14:42:18;;;;;;;;;;;8.60;99.90;;;;;;8348797;28;20392;-75
2023/02/01 14:46:39;;;;;;;;;;;8.50;99.90;;;;;;8357349;28;19928;-76
2023/02/01 14:50:43;;;;;;;;;;;8.60;99.90;;;;;;8368853;28;19969;-76
2023/02/01 14:54:48;;;;;;;;;;;8.60;99.90;;;;;;8349453;28;19925;-76
2023/02/01 14:58:59;;;;;;;;;;;8.50;99.90;;;;;;8368889;28;19952;-76
2023/02/01 15:03:23;;;;;;;;;;;8.50;99.90;;;;;;8349350;28;19929;-76
2023/02/01 15:07:27;;;;;;;;;;;8.50;99.90;;;;;;8372991;28;19925;-75
2023/02/01 15:11:28;;;;;;;;;;;8.50;99.90;;;;;;8364530;28;19933;-76
2023/02/01 15:15:33;;;;;;;;;;;8.50;99.90;;;;;;8366878;28;19933;-76
2023/02/01 15:19:35;;;;;;;;;;;8.50;99.90;;;;;;8367317;28;19931;-75
2023/02/01 15:23:36;;;;;;;;;;;8.50;99.90;;;;;;8346476;28;20447;-76
2023/02/01 15:27:38;;;;;;;;;;;8.50;99.90;;;;;;8360613;28;19925;-76
2023/02/01 15:31:47;;;;;;;;;;;8.50;99.90;;;;;;8371614;28;19955;-76
2023/02/01 15:35:50;;;;;;;;;;;8.50;99.90;;;;;;8364091;28;20688;-76
2023/02/01 15:40:10;;;;;;;;;;;8.50;99.90;;;;;;8352227;28;19971;-76
2023/02/01 15:44:18;;;;;;;;;;;8.50;99.90;;;;;;8354860;28;19929;-76
2023/02/01 15:48:22;;;;;;;;;;;8.60;99.90;;;;;;8367455;28;19928;-76
2023/02/01 15:52:33;;;;;;;;;;;8.60;99.90;;;;;;8381537;28;19968;-76
2023/02/01 15:56:35;;;;;;;;;;;8.60;99.90;;;;;;8370257;28;19924;-77
2023/02/01 16:00:43;;;;;;;;;;;8.60;99.90;;;;;;8369981;28;19974;-76
2023/02/01 16:14:52;;;;;;;;;;;8.60;99.90;;;;;;8368170;28;19919;-76
2023/02/01 16:18:54;;;;;;;;;;;8.60;99.90;;;;;;8353392;28;20455;-76
2023/02/01 16:22:56;;;;;;;;;;;8.60;99.90;;;;;;8353464;28;20536;-76
2023/02/01 16:26:58;;;;;;;;;;;8.60;99.90;;;;;;8365498;28;20035;-76
2023/02/01 16:31:00;;;;;;;;;;;8.60;99.90;;;;;;8368800;28;20030;-76
2023/02/01 16:35:01;;;;;;;;;;;8.60;99.90;;;;;;8366080;28;20288;-76
2023/02/01 16:39:03;;;;;;;;;;;8.60;99.90;;;;;;8367316;28;19925;-76
2023/02/01 16:43:11;;;;;;;;;;;8.60;99.90;;;;;;8378137;28;19955;-76
2023/02/01 16:47:17;;;;;;;;;;;8.60;99.90;;;;;;8356653;28;19932;-76
2023/02/01 16:51:19;;;;;;;;;;;8.60;99.90;;;;;;8366209;28;20724;-76
2023/02/01 16:55:21;;;;;;;;;;;8.70;99.90;;;;;;8366103;28;20022;-76
2023/02/01 16:59:23;;;;;;;;;;;8.70;99.90;;;;;;8350832;28;20068;-76
2023/02/01 17:03:25;;;;;;;;;;;8.70;99.90;;;;;;8372675;28;19939;-76
2023/02/01 17:07:26;;;;;;;;;;;8.70;99.90;;;;;;8354418;28;19955;-76
2023/02/01 17:11:32;;;;;;;;;;;8.80;99.90;;;;;;8371716;28;19928;-76
2023/02/01 17:15:34;;;;;;;;;;;8.80;99.90;;;;;;8351044;28;19931;-76
2023/02/01 17:19:36;;;;;;;;;;;8.80;99.90;;;;;;8358918;28;20389;-76
2023/02/01 17:23:37;;;;;;;;;;;8.80;99.90;;;;;;8381700;28;20031;-76
2023/02/01 17:27:40;;;;;;;;;;;8.80;99.90;;;;;;8366844;28;19929;-75
2023/02/01 17:31:44;;;;;;;;;;;8.80;99.90;;;;;;8368207;28;20047;-75
2023/02/01 17:35:47;;;;;;;;;;;8.80;99.90;;;;;;8362887;28;19929;-76
2023/02/01 17:39:55;;;;;;;;;;;8.80;99.90;;;;;;8341655;28;19932;-75
2023/02/01 17:43:56;;;;;;;;;;;8.80;99.90;;;;;;8361254;28;19924;-76
2023/02/01 17:47:58;;;;;;;;;;;8.90;99.90;;;;;;8347630;28;19935;-76
2023/02/01 17:52:00;;;;;;;;;;;8.90;99.90;;;;;;8356758;28;20015;-76
2023/02/01 17:56:01;;;;;;;;;;;8.90;99.90;;;;;;8353952;28;19924;-76
2023/02/01 18:00:03;;;;;;;;;;;8.90;99.90;;;;;;8343582;28;20463;-75
2023/02/01 18:04:05;;;;;;;;;;;8.90;99.90;;;;;;8344092;28;19924;-76
2023/02/01 18:08:07;;;;;;;;;;;8.90;99.90;;;;;;8344107;28;19967;-76
2023/02/01 18:12:14;;;;;;;;;;;8.90;99.90;;;;;;8380054;28;20035;-76
2023/02/01 18:16:18;;;;;;;;;;;8.90;99.90;;;;;;8364688;28;19950;-75
2023/02/01 18:20:22;;;;;;;;;;;8.90;99.90;;;;;;8362445;28;19928;-76
2023/02/01 18:24:26;;;;;;;;;;;8.90;99.90;;;;;;8348581;28;20041;-76
2023/02/01 18:28:27;;;;;;;;;;;8.90;99.90;;;;;;8374924;28;19936;-76
2023/02/01 18:32:29;;;;;;;;;;;8.90;99.90;;;;;;8369586;28;19936;-75
2023/02/01 18:36:31;;;;;;;;;;;8.90;99.90;;;;;;8344096;28;19925;-76
2023/02/01 18:40:34;;;;;;;;;;;8.90;99.90;;;;;;8346061;28;20408;-76
2023/02/01 18:44:35;;;;;;;;;;;8.90;99.90;;;;;;8360150;28;19951;-76
2023/02/01 18:48:38;;;;;;;;;;;8.90;99.90;;;;;;8362270;28;20024;-75
2023/02/01 18:52:39;;;;;;;;;;;8.90;99.90;;;;;;8373362;28;19931;-76
2023/02/01 18:56:42;;;;;;;;;;;8.90;99.90;;;;;;8372691;28;20388;-76
2023/02/01 19:00:44;;;;;;;;;;;8.90;99.90;;;;;;8380955;28;19971;-75
2023/02/01 19:04:46;;;;;;;;;;;8.90;99.90;;;;;;8369274;28;19932;-76
2023/02/01 19:08:48;;;;;;;;;;;8.90;99.90;;;;;;8361586;28;19925;-76
2023/02/01 19:12:50;;;;;;;;;;;8.90;99.90;;;;;;8372515;28;19928;-76
2023/02/01 19:32:02;;;;;;;;;;;9.00;99.90;;;;;;8370860;28;19940;-76
2023/02/01 19:36:04;;;;;;;;;;;9.00;99.90;;;;;;8375740;28;19954;-75
2023/02/01 19:40:07;;;;;;;;;;;9.00;99.90;;;;;;8358607;28;19929;-76
2023/02/01 19:44:09;;;;;;;;;;;9.00;99.90;;;;;;8371065;28;19939;-76
2023/02/01 19:48:12;;;;;;;;;;;9.00;99.90;;;;;;8366134;28;19932;-76
2023/02/01 19:52:13;;;;;;;;;;;9.00;99.90;;;;;;8368809;28;19932;-76
2023/02/01 19:56:15;;;;;;;;;;;9.00;99.90;;;;;;8351693;28;19932;-76
2023/02/01 20:00:19;;;;;;;;;;;9.00;99.90;;;;;;8377031;28;19971;-75
2023/02/01 20:04:21;;;;;;;;;;;9.00;99.90;;;;;;8364734;28;19932;-76
2023/02/01 20:08:23;;;;;;;;;;;9.00;99.90;;;;;;8366442;28;20386;-75
2023/02/01 20:12:24;;;;;;;;;;;9.00;99.90;;;;;;8367823;28;20024;-76
2023/02/01 20:16:26;;;;;;;;;;;8.90;99.90;;;;;;8362907;28;19980;-76
2023/02/01 20:20:28;;;;;;;;;;;8.80;99.90;;;;;;8352385;28;19963;-76
2023/02/01 20:24:30;;;;;;;;;;;8.80;99.90;;;;;;8362064;28;19932;-76
2023/02/01 20:28:32;;;;;;;;;;;8.80;99.90;;;;;;8368401;28;19939;-76
2023/02/01 20:32:34;;;;;;;;;;;8.80;99.90;;;;;;8355014;28;20316;-76
2023/02/01 20:36:35;;;;;;;;;;;8.80;99.90;;;;;;8366901;28;19929;-76
2023/02/01 20:40:37;;;;;;;;;;;8.90;99.90;;;;;;8351087;28;19931;-76
2023/02/01 20:44:39;;;;;;;;;;;8.90;99.90;;;;;;8369063;28;19924;-76
2023/02/01 20:48:41;;;;;;;;;;;8.90;99.90;;;;;;8361703;28;19924;-76
2023/02/01 20:52:43;;;;;;;;;;;8.90;99.90;;;;;;8348571;28;19929;-76
2023/02/01 20:56:45;;;;;;;;;;;8.90;99.90;;;;;;8352357;28;19929;-76
2023/02/01 21:00:48;;;;;;;;;;;9.00;99.90;;;;;;8370534;28;19925;-76
2023/02/01 21:04:50;;;;;;;;;;;9.00;99.90;;;;;;8355365;28;20317;-76
2023/02/01 21:08:51;;;;;;;;;;;9.00;99.90;;;;;;8350376;28;19935;-76
2023/02/01 21:12:53;;;;;;;;;;;9.00;99.90;;;;;;8366917;28;19964;-76
2023/02/01 21:17:05;;;;;;;;;;;9.00;99.90;;;;;;8352971;28;20763;-76
2023/02/01 21:21:08;;;;;;;;;;;9.00;99.90;;;;;;8364309;28;20395;-76
2023/02/01 21:25:10;;;;;;;;;;;8.90;99.90;;;;;;8366687;28;19939;-76
2023/02/01 21:29:13;;;;;;;;;;;8.90;99.90;;;;;;8379541;28;19929;-76
2023/02/01 21:33:15;;;;;;;;;;;8.90;99.90;;;;;;8349149;28;20522;-76
2023/02/01 21:37:17;;;;;;;;;;;8.90;99.90;;;;;;8366896;28;19936;-76
2023/02/01 21:45:40;;;;;;;;;;;8.90;99.90;;;;;;8363808;28;19952;-76
2023/02/01 21:49:49;;;;;;;;;;;8.90;99.90;;;;;;8368246;28;19924;-76
2023/02/01 21:53:51;;;;;;;;;;;8.90;99.90;;;;;;8365180;28;19981;-76
2023/02/01 21:57:52;;;;;;;;;;;8.90;99.90;;;;;;8370142;28;19939;-76
2023/02/01 22:01:54;;;;;;;;;;;8.90;99.90;;;;;;8373272;28;20321;-76
2023/02/01 22:21:07;;;;;;;;;;;8.90;99.90;;;;;;8383426;28;19919;-76
2023/02/01 22:25:09;;;;;;;;;;;8.90;99.90;;;;;;8365995;28;19925;-76
2023/02/01 22:29:11;;;;;;;;;;;8.90;99.90;;;;;;8385432;28;20035;-76
2023/02/01 22:33:13;;;;;;;;;;;8.90;99.90;;;;;;8380142;28;19925;-76
2023/02/01 22:37:15;;;;;;;;;;;8.90;99.90;;;;;;8398316;28;19930;-76
2023/02/01 22:41:17;;;;;;;;;;;8.70;99.90;;;;;;8385775;28;19925;-75
2023/02/01 22:45:19;;;;;;;;;;;8.50;99.90;;;;;;8379121;28;19975;-75
2023/02/01 22:49:21;;;;;;;;;;;8.30;99.90;;;;;;8387431;28;19939;-75
2023/02/01 22:53:22;;;;;;;;;;;8.20;99.90;;;;;;8365529;28;20359;-75
2023/02/01 22:57:24;;;;;;;;;;;8.10;99.90;;;;;;8389629;28;20012;-75
2023/02/01 23:01:26;;;;;;;;;;;8.10;99.90;;;;;;8383157;28;19925;-75
2023/02/01 23:05:28;;;;;;;;;;;8.10;99.90;;;;;;8385782;28;19932;-75
2023/02/01 23:09:29;;;;;;;;;;;8.10;99.90;;;;;;8383172;28;19971;-75
2023/02/01 23:13:32;;;;;;;;;;;8.10;99.90;;;;;;8385984;28;19935;-75
2023/02/01 23:17:34;;;;;;;;;;;8.00;99.90;;;;;;8385924;28;20352;-75
2023/02/01 23:21:36;;;;;;;;;;;8.00;99.90;;;;;;8385102;28;20392;-75
2023/02/01 23:25:38;;;;;;;;;;;8.00;99.90;;;;;;8388044;28;20046;-75
2023/02/01 23:29:39;;;;;;;;;;;8.00;99.90;;;;;;8384060;28;19925;-75
2023/02/01 23:33:43;;;;;;;;;;;8.00;99.90;;;;;;8380317;28;20019;-75
2023/02/01 23:37:44;;;;;;;;;;;8.00;99.90;;;;;;8390343;28;20380;-75
2023/02/01 23:41:46;;;;;;;;;;;7.90;99.90;;;;;;8368195;28;20024;-75
2023/02/01 23:45:47;;;;;;;;;;;8.00;99.90;;;;;;8380675;28;19929;-75
2023/02/01 23:49:49;;;;;;;;;;;8.00;99.90;;;;;;8385166;28;19998;-75
2023/02/01 23:53:51;;;;;;;;;;;7.90;99.90;;;;;;8358140;28;19994;-75
2023/02/01 23:57:53;;;;;;;;;;;7.90;99.90;;;;;;8381725;28;19972;-75
